createdAt,value
2023-05-06T00:01:12.337Z,99.90
2023-05-06T00:03:39.555Z,99.90
2023-05-06T00:06:07.435Z,99.90
2023-05-06T00:08:34.199Z,99.90
2023-05-06T00:11:01.058Z,99.90
2023-05-06T00:13:27.858Z,99.90
2023-05-06T00:15:54.625Z,99.90
2023-05-06T00:18:22.790Z,99.90
2023-05-06T00:20:49.815Z,99.90
2023-05-06T00:23:16.677Z,99.90
2023-05-06T00:25:43.451Z,99.90
2023-05-06T00:28:10.198Z,99.90
2023-05-06T00:30:36.931Z,99.90
2023-05-06T00:33:03.740Z,99.90
2023-05-06T00:35:30.742Z,99.90
2023-05-06T00:38:11.669Z,99.90
2023-05-06T00:40:38.586Z,99.90
2023-05-06T00:43:05.588Z,99.90
2023-05-06T00:45:32.706Z,99.90
2023-05-06T00:50:34.500Z,99.90
2023-05-06T00:53:03.886Z,99.90
2023-05-06T00:55:31.499Z,99.90
2023-05-06T00:57:58.471Z,99.90
2023-05-06T01:00:25.674Z,99.90
2023-05-06T01:02:52.525Z,99.90
2023-05-06T01:05:22.348Z,99.90
2023-05-06T01:08:12.152Z,99.90
2023-05-06T01:10:44.425Z,99.90
2023-05-06T01:13:39.270Z,99.90
2023-05-06T01:16:08.609Z,99.90
2023-05-06T01:18:38.378Z,99.90
2023-05-06T01:21:05.862Z,99.90
2023-05-06T01:23:57.640Z,99.90
2023-05-06T01:26:25.410Z,99.90
2023-05-06T01:28:52.497Z,99.90
2023-05-06T01:31:29.969Z,99.90
2023-05-06T01:34:31.255Z,99.90
2023-05-06T01:36:57.988Z,99.90
2023-05-06T01:39:30.804Z,99.90
2023-05-06T01:42:00.344Z,99.90
2023-05-06T01:44:31.899Z,99.90
2023-05-06T01:46:58.739Z,99.90
2023-05-06T01:49:26.443Z,99.90
2023-05-06T01:51:54.550Z,99.90
2023-05-06T01:54:21.452Z,99.90
2023-05-06T01:56:48.152Z,99.90
2023-05-06T01:59:14.944Z,99.90
2023-05-06T02:01:41.725Z,99.90
2023-05-06T02:04:08.548Z,99.90
2023-05-06T02:06:35.365Z,99.90
2023-05-06T02:09:02.204Z,99.90
2023-05-06T02:11:29.070Z,99.90
2023-05-06T02:13:55.764Z,99.90
2023-05-06T02:16:22.561Z,99.90
2023-05-06T02:18:49.409Z,99.90
2023-05-06T02:21:16.362Z,99.90
2023-05-06T02:23:43.062Z,99.90
2023-05-06T02:26:10.597Z,99.90
2023-05-06T02:28:37.411Z,99.90
2023-05-06T02:31:04.099Z,99.90
2023-05-06T02:33:30.884Z,99.90
2023-05-06T02:35:57.579Z,99.90
2023-05-06T02:38:24.338Z,99.90
2023-05-06T02:40:51.028Z,99.90
2023-05-06T02:43:17.729Z,99.90
2023-05-06T02:45:44.527Z,99.90
2023-05-06T02:48:11.240Z,99.90
2023-05-06T02:50:37.935Z,99.90
2023-05-06T02:53:04.747Z,99.90
2023-05-06T02:55:31.639Z,99.90
2023-05-06T02:57:58.350Z,99.90
2023-05-06T03:00:25.066Z,99.90
2023-05-06T03:02:51.877Z,99.90
2023-05-06T03:05:18.736Z,99.90
2023-05-06T03:07:45.547Z,99.90
2023-05-06T03:10:12.358Z,99.90
2023-05-06T03:12:39.174Z,99.90
2023-05-06T03:15:07.225Z,99.90
2023-05-06T03:17:34.045Z,99.90
2023-05-06T03:20:00.866Z,99.90
2023-05-06T03:22:27.568Z,99.90
2023-05-06T03:24:54.246Z,99.90
2023-05-06T03:27:20.936Z,99.90
2023-05-06T03:29:47.658Z,99.90
2023-05-06T03:32:14.354Z,99.90
2023-05-06T03:34:41.061Z,99.90
2023-05-06T03:37:07.812Z,99.90
2023-05-06T03:39:34.492Z,99.90
2023-05-06T03:42:02.269Z,99.90
2023-05-06T03:44:29.317Z,99.90
2023-05-06T03:46:56.045Z,99.90
2023-05-06T03:49:22.761Z,99.90
2023-05-06T03:51:49.635Z,99.90
2023-05-06T03:54:16.368Z,99.90
2023-05-06T03:56:43.062Z,99.90
2023-05-06T03:59:09.813Z,99.90
2023-05-06T04:01:36.519Z,99.90
2023-05-06T04:04:03.332Z,99.90
2023-05-06T04:06:30.138Z,99.90
2023-05-06T04:08:56.848Z,99.90
2023-05-06T04:11:23.526Z,99.90
2023-05-06T04:13:50.292Z,99.90
2023-05-06T04:16:17.125Z,99.90
2023-05-06T04:18:44.100Z,99.90
2023-05-06T04:21:12.191Z,99.90
2023-05-06T04:23:39.014Z,99.90
2023-05-06T04:26:06.080Z,99.90
2023-05-06T04:28:33.026Z,99.90
2023-05-06T04:30:59.794Z,99.90
2023-05-06T04:33:27.395Z,99.90
2023-05-06T04:35:54.323Z,99.90
2023-05-06T04:38:27.067Z,99.90
2023-05-06T04:40:53.854Z,99.90
2023-05-06T04:43:20.620Z,99.90
2023-05-06T04:45:49.647Z,99.90
2023-05-06T04:48:22.273Z,99.90
2023-05-06T04:50:49.789Z,99.90
2023-05-06T04:53:17.143Z,99.90
2023-05-06T04:55:43.988Z,99.90
2023-05-06T04:58:10.731Z,99.90
2023-05-06T05:00:37.580Z,99.90
2023-05-06T05:03:04.449Z,99.90
2023-05-06T05:05:33.240Z,99.90
2023-05-06T05:08:00.038Z,99.90
2023-05-06T05:10:26.851Z,99.90
2023-05-06T05:12:53.599Z,99.90
2023-05-06T05:15:21.244Z,99.90
2023-05-06T05:17:48.297Z,99.90
2023-05-06T05:20:15.213Z,99.90
2023-05-06T05:22:41.959Z,99.90
2023-05-06T05:25:08.883Z,99.90
2023-05-06T05:27:36.385Z,99.90
2023-05-06T05:30:03.641Z,99.90
2023-05-06T05:32:30.411Z,99.90
2023-05-06T05:34:57.210Z,99.90
2023-05-06T05:37:23.944Z,99.90
2023-05-06T05:39:50.723Z,99.90
2023-05-06T05:42:17.497Z,99.90
2023-05-06T05:44:44.198Z,99.90
2023-05-06T05:47:11.010Z,99.90
2023-05-06T05:49:37.701Z,99.90
2023-05-06T05:52:04.730Z,99.90
2023-05-06T05:54:31.486Z,99.90
2023-05-06T05:56:58.240Z,99.90
2023-05-06T05:59:25.839Z,99.90
2023-05-06T06:01:52.549Z,99.90
2023-05-06T06:04:19.444Z,99.90
2023-05-06T06:06:46.404Z,99.90
2023-05-06T06:09:13.767Z,99.90
2023-05-06T06:11:40.723Z,99.90
2023-05-06T06:14:07.499Z,99.90
2023-05-06T06:16:34.509Z,99.90
2023-05-06T06:19:01.318Z,99.90
2023-05-06T06:21:28.078Z,99.90
2023-05-06T06:23:55.287Z,99.90
2023-05-06T06:26:21.994Z,99.90
2023-05-06T06:28:48.722Z,99.90
2023-05-06T06:31:15.740Z,99.90
2023-05-06T06:33:42.477Z,99.90
2023-05-06T06:36:09.485Z,99.90
2023-05-06T06:38:36.214Z,99.90
2023-05-06T06:41:03.046Z,99.90
2023-05-06T06:43:29.833Z,99.90
2023-05-06T06:45:56.831Z,99.90
2023-05-06T06:48:23.685Z,99.90
2023-05-06T06:50:50.611Z,99.90
2023-05-06T06:53:17.470Z,99.90
2023-05-06T06:55:47.357Z,99.90
2023-05-06T06:58:14.208Z,99.90
2023-05-06T07:00:40.941Z,99.90
2023-05-06T07:03:07.819Z,99.90
2023-05-06T07:05:34.613Z,99.90
2023-05-06T07:08:01.336Z,99.90
2023-05-06T07:10:28.143Z,99.90
2023-05-06T07:12:54.969Z,99.90
2023-05-06T07:15:21.870Z,99.90
2023-05-06T07:17:48.568Z,99.90
2023-05-06T07:20:16.232Z,99.90
2023-05-06T07:22:43.705Z,99.90
2023-05-06T07:25:10.833Z,99.90
2023-05-06T07:27:38.215Z,99.90
2023-05-06T07:30:05.561Z,99.90
2023-05-06T07:32:32.317Z,99.90
2023-05-06T07:34:59.177Z,99.90
2023-05-06T07:37:25.930Z,99.90
2023-05-06T07:39:52.708Z,99.90
2023-05-06T07:42:19.443Z,99.90
2023-05-06T07:44:46.271Z,99.90
2023-05-06T07:47:25.320Z,99.90
2023-05-06T07:49:52.112Z,99.90
2023-05-06T07:52:18.844Z,99.90
2023-05-06T07:54:45.704Z,99.90
2023-05-06T07:57:12.422Z,99.90
2023-05-06T07:59:39.171Z,99.90
2023-05-06T08:02:05.957Z,99.90
2023-05-06T08:04:32.820Z,99.90
2023-05-06T08:06:59.590Z,99.90
2023-05-06T08:09:26.324Z,99.90
2023-05-06T08:11:53.572Z,99.90
2023-05-06T08:14:20.296Z,99.90
2023-05-06T08:16:47.203Z,99.90
2023-05-06T08:19:13.972Z,99.90
2023-05-06T08:21:41.194Z,99.90
2023-05-06T08:24:08.054Z,99.90
2023-05-06T08:26:34.785Z,99.90
2023-05-06T08:29:03.105Z,99.90
2023-05-06T08:31:29.968Z,99.90
2023-05-06T08:33:56.671Z,99.90
2023-05-06T08:36:23.418Z,99.90
2023-05-06T08:38:51.022Z,99.90
2023-05-06T08:41:19.922Z,99.90
2023-05-06T08:43:48.555Z,99.90
2023-05-06T08:46:15.818Z,99.90
2023-05-06T08:48:43.003Z,99.90
2023-05-06T08:51:11.719Z,99.90
2023-05-06T08:53:42.327Z,99.90
2023-05-06T08:56:11.579Z,99.90
2023-05-06T08:58:40.960Z,99.90
2023-05-06T09:01:08.010Z,99.90
2023-05-06T09:03:34.852Z,99.90
2023-05-06T09:06:02.305Z,99.90
2023-05-06T09:08:29.029Z,99.90
2023-05-06T09:10:55.786Z,99.90
2023-05-06T09:13:22.609Z,99.90
2023-05-06T09:15:49.615Z,99.90
2023-05-06T09:18:16.944Z,99.90
2023-05-06T09:20:49.280Z,99.90
2023-05-06T09:23:17.788Z,99.90
2023-05-06T09:25:46.490Z,99.90
2023-05-06T09:28:14.276Z,99.90
2023-05-06T09:30:42.362Z,99.90
2023-05-06T09:33:10.144Z,99.90
2023-05-06T09:35:42.730Z,99.90
2023-05-06T09:38:10.016Z,99.90
2023-05-06T09:40:37.993Z,98.40
2023-05-06T09:43:05.853Z,98.80
2023-05-06T09:45:33.335Z,97.80
2023-05-06T09:48:00.683Z,99.00
2023-05-06T09:50:27.604Z,97.70
2023-05-06T09:52:55.989Z,97.60
2023-05-06T09:55:26.513Z,96.20
2023-05-06T09:57:53.575Z,96.80
2023-05-06T10:00:26.878Z,93.80
2023-05-06T10:02:55.103Z,90.90
2023-05-06T10:05:24.935Z,88.80
2023-05-06T10:07:53.465Z,83.50
2023-05-06T10:10:21.235Z,86.60
2023-05-06T10:12:49.917Z,83.60
2023-05-06T10:15:16.820Z,85.70
2023-05-06T10:17:47.452Z,85.60
2023-05-06T10:20:15.033Z,83.60
2023-05-06T10:22:52.741Z,79.60
2023-05-06T10:25:42.551Z,79.80
2023-05-06T10:28:12.896Z,80.80
2023-05-06T10:30:51.038Z,84.30
2023-05-06T10:33:18.115Z,85.80
2023-05-06T10:35:52.957Z,84.20
2023-05-06T10:38:34.492Z,82.30
2023-05-06T10:41:02.183Z,80.30
2023-05-06T10:43:32.862Z,74.90
2023-05-06T10:46:17.366Z,74.30
2023-05-06T10:49:06.295Z,76.70
2023-05-06T10:51:33.948Z,75.10
2023-05-06T10:54:11.352Z,74.30
2023-05-06T10:56:40.010Z,77.80
2023-05-06T10:59:11.743Z,79.00
2023-05-06T11:01:40.487Z,77.70
2023-05-06T11:04:12.644Z,75.90
2023-05-06T11:06:48.154Z,75.00
2023-05-06T11:09:23.043Z,75.80
2023-05-06T11:12:05.851Z,75.50
2023-05-06T11:14:38.986Z,79.30
2023-05-06T11:17:07.750Z,80.30
2023-05-06T11:19:36.484Z,76.60
2023-05-06T11:22:05.416Z,75.00
2023-05-06T11:24:43.307Z,79.30
2023-05-06T11:27:11.167Z,76.30
2023-05-06T11:29:38.200Z,76.80
2023-05-06T11:32:25.165Z,76.80
2023-05-06T11:34:56.356Z,73.50
2023-05-06T11:37:27.972Z,75.90
2023-05-06T11:39:55.151Z,76.60
2023-05-06T11:42:29.146Z,80.40
2023-05-06T11:45:00.519Z,81.80
2023-05-06T11:47:27.279Z,84.30
2023-05-06T11:49:54.853Z,84.90
2023-05-06T11:52:21.720Z,77.40
2023-05-06T11:54:50.825Z,78.80
2023-05-06T11:57:19.624Z,75.70
2023-05-06T11:59:46.413Z,77.20
2023-05-06T12:02:14.459Z,76.20
2023-05-06T12:04:46.569Z,75.70
2023-05-06T12:07:15.448Z,77.70
2023-05-06T12:09:45.794Z,78.30
2023-05-06T12:12:14.936Z,76.60
2023-05-06T12:14:41.826Z,78.40
2023-05-06T12:17:08.745Z,77.90
2023-05-06T12:19:35.732Z,78.10
2023-05-06T12:22:24.549Z,76.60
2023-05-06T12:24:51.422Z,76.60
2023-05-06T12:27:34.747Z,77.40
2023-05-06T12:30:04.133Z,75.20
2023-05-06T12:32:31.238Z,75.50
2023-05-06T12:34:59.481Z,74.60
2023-05-06T12:37:29.216Z,75.40
2023-05-06T12:39:59.225Z,76.80
2023-05-06T12:42:26.604Z,77.80
2023-05-06T12:44:53.426Z,71.80
2023-05-06T12:47:25.725Z,76.30
2023-05-06T12:49:54.373Z,77.60
2023-05-06T12:52:23.137Z,77.10
2023-05-06T12:54:51.888Z,73.60
2023-05-06T12:57:19.134Z,75.50
2023-05-06T12:59:46.461Z,74.50
2023-05-06T13:02:13.752Z,76.10
2023-05-06T13:04:40.846Z,77.50
2023-05-06T13:07:07.753Z,76.90
2023-05-06T13:09:34.469Z,76.90
2023-05-06T13:12:02.750Z,78.10
2023-05-06T13:14:29.466Z,78.20
2023-05-06T13:16:56.346Z,76.60
2023-05-06T13:19:32.284Z,75.50
2023-05-06T13:22:00.505Z,76.30
2023-05-06T13:24:27.731Z,78.40
2023-05-06T13:26:56.069Z,76.00
2023-05-06T13:29:23.595Z,77.90
2023-05-06T13:31:51.336Z,74.50
2023-05-06T13:34:18.537Z,76.80
2023-05-06T13:36:46.766Z,77.80
2023-05-06T13:39:13.851Z,76.90
2023-05-06T13:41:40.638Z,75.70
2023-05-06T13:44:07.392Z,78.70
2023-05-06T13:46:34.146Z,79.00
2023-05-06T13:49:01.028Z,77.50
2023-05-06T13:51:29.947Z,76.90
2023-05-06T13:53:56.782Z,79.50
2023-05-06T13:56:23.578Z,76.40
2023-05-06T13:58:50.439Z,79.20
2023-05-06T14:01:17.281Z,74.70
2023-05-06T14:03:44.012Z,75.80
2023-05-06T14:06:11.588Z,77.60
2023-05-06T14:08:38.532Z,79.20
2023-05-06T14:11:05.552Z,79.00
2023-05-06T14:13:33.858Z,80.10
2023-05-06T14:16:00.712Z,81.90
2023-05-06T14:18:28.293Z,78.80
2023-05-06T14:20:55.320Z,78.90
2023-05-06T14:23:22.233Z,79.90
2023-05-06T14:25:49.331Z,77.60
2023-05-06T14:28:16.297Z,76.40
2023-05-06T14:30:43.305Z,77.20
2023-05-06T14:33:10.629Z,78.60
2023-05-06T14:35:45.984Z,76.60
2023-05-06T14:38:12.831Z,74.70
2023-05-06T14:40:39.617Z,74.30
2023-05-06T14:43:09.308Z,76.00
2023-05-06T14:45:36.075Z,74.70
2023-05-06T14:48:03.123Z,76.60
2023-05-06T14:50:30.985Z,75.40
2023-05-06T14:52:57.895Z,77.20
2023-05-06T14:55:25.602Z,75.10
2023-05-06T14:57:52.370Z,77.20
2023-05-06T15:00:20.334Z,78.10
2023-05-06T15:02:47.176Z,77.20
2023-05-06T15:05:14.219Z,78.90
2023-05-06T15:07:41.418Z,75.70
2023-05-06T15:10:08.460Z,76.30
2023-05-06T15:12:36.819Z,76.90
2023-05-06T15:15:05.046Z,75.20
2023-05-06T15:17:32.527Z,76.60
2023-05-06T15:19:59.342Z,76.80
2023-05-06T15:22:26.168Z,76.20
2023-05-06T15:24:52.930Z,76.00
2023-05-06T15:27:19.641Z,74.00
2023-05-06T15:29:46.390Z,75.10
2023-05-06T15:32:13.226Z,74.80
2023-05-06T15:34:39.987Z,78.50
2023-05-06T15:37:08.050Z,75.30
2023-05-06T15:39:39.215Z,74.90
2023-05-06T15:42:06.325Z,78.60
2023-05-06T15:44:33.913Z,76.50
2023-05-06T15:47:01.050Z,76.70
2023-05-06T15:52:00.582Z,77.40
2023-05-06T15:54:28.529Z,77.20
2023-05-06T15:56:56.337Z,76.80
2023-05-06T15:59:23.188Z,76.80
2023-05-06T16:02:25.517Z,77.30
2023-05-06T16:04:37.143Z,75.60
2023-05-06T16:07:04.067Z,75.40
2023-05-06T16:09:30.876Z,76.00
2023-05-06T16:11:58.094Z,77.30
2023-05-06T16:14:24.858Z,77.00
2023-05-06T16:16:51.658Z,77.90
2023-05-06T16:19:18.592Z,77.00
2023-05-06T16:21:45.320Z,77.90
2023-05-06T16:24:12.051Z,78.00
2023-05-06T16:26:38.788Z,78.20
2023-05-06T16:29:06.646Z,77.50
2023-05-06T16:31:33.866Z,79.00
2023-05-06T16:34:00.626Z,79.70
2023-05-06T16:36:28.513Z,79.20
2023-05-06T16:38:55.472Z,78.60
2023-05-06T16:41:22.213Z,79.20
2023-05-06T16:43:49.521Z,77.80
2023-05-06T16:46:16.331Z,76.70
2023-05-06T16:48:43.250Z,78.00
2023-05-06T16:51:12.204Z,81.10
2023-05-06T16:53:39.196Z,80.90
2023-05-06T16:56:06.286Z,78.50
2023-05-06T16:58:33.104Z,79.50
2023-05-06T17:00:59.899Z,79.40
2023-05-06T17:03:26.820Z,79.30
2023-05-06T17:05:56.265Z,78.70
2023-05-06T17:08:24.437Z,81.20
2023-05-06T17:10:53.466Z,82.00
2023-05-06T17:13:20.352Z,82.80
2023-05-06T17:15:47.176Z,84.30
2023-05-06T17:18:14.149Z,86.00
2023-05-06T17:20:54.186Z,86.80
2023-05-06T17:23:21.851Z,85.60
2023-05-06T17:25:48.652Z,85.30
2023-05-06T17:28:16.773Z,85.50
2023-05-06T17:30:44.890Z,86.90
2023-05-06T17:33:11.783Z,88.70
2023-05-06T17:35:38.582Z,88.00
2023-05-06T17:38:05.382Z,87.90
2023-05-06T17:40:32.124Z,87.60
2023-05-06T17:42:58.944Z,88.30
2023-05-06T17:45:26.774Z,89.60
2023-05-06T17:47:53.645Z,90.90
2023-05-06T17:50:20.473Z,90.90
2023-05-06T17:52:50.879Z,90.60
2023-05-06T17:55:17.864Z,90.50
2023-05-06T17:57:44.716Z,91.40
2023-05-06T18:00:11.945Z,91.50
2023-05-06T18:02:38.973Z,91.50
2023-05-06T18:05:06.469Z,91.60
2023-05-06T18:07:35.687Z,91.40
2023-05-06T18:10:02.537Z,91.80
2023-05-06T18:12:30.367Z,92.90
2023-05-06T18:14:57.862Z,92.80
2023-05-06T18:17:24.662Z,92.70
2023-05-06T18:19:51.779Z,94.20
2023-05-06T18:22:18.514Z,94.20
2023-05-06T18:24:45.285Z,94.50
2023-05-06T18:27:13.029Z,95.10
2023-05-06T18:29:41.231Z,95.80
2023-05-06T18:32:08.376Z,96.80
2023-05-06T18:34:35.431Z,97.60
2023-05-06T18:37:02.234Z,98.40
2023-05-06T18:39:29.088Z,98.80
2023-05-06T18:41:55.874Z,99.20
2023-05-06T18:44:22.614Z,99.50
2023-05-06T18:46:49.379Z,99.90
2023-05-06T18:49:16.431Z,99.90
2023-05-06T18:51:43.153Z,99.90
2023-05-06T18:54:09.940Z,99.90
2023-05-06T18:56:37.522Z,99.90
2023-05-06T18:59:04.271Z,99.90
2023-05-06T19:01:31.157Z,99.90
2023-05-06T19:03:58.092Z,99.90
2023-05-06T19:06:24.985Z,99.90
2023-05-06T19:08:51.779Z,99.90
2023-05-06T19:11:19.181Z,99.90
2023-05-06T19:13:46.472Z,99.90
2023-05-06T19:16:14.054Z,99.90
2023-05-06T19:18:41.064Z,99.90
2023-05-06T19:21:12.178Z,99.90
2023-05-06T19:23:39.143Z,99.90
2023-05-06T19:26:07.134Z,99.90
2023-05-06T19:28:34.373Z,99.90
2023-05-06T19:31:01.703Z,99.90
2023-05-06T19:33:28.748Z,99.90
2023-05-06T19:35:55.470Z,99.90
2023-05-06T19:38:22.196Z,99.90
2023-05-06T19:40:48.958Z,99.90
2023-05-06T19:43:15.696Z,99.90
2023-05-06T19:45:42.525Z,99.90
2023-05-06T19:48:09.408Z,99.90
2023-05-06T19:50:36.699Z,99.90
2023-05-06T19:53:03.588Z,99.90
2023-05-06T19:55:30.946Z,99.90
2023-05-06T19:57:58.061Z,99.90
2023-05-06T20:00:27.919Z,99.90
2023-05-06T20:02:56.424Z,99.90
2023-05-06T20:05:23.544Z,99.90
2023-05-06T20:07:51.206Z,99.90
2023-05-06T20:10:18.074Z,99.90
2023-05-06T20:12:44.993Z,99.90
2023-05-06T20:15:12.195Z,99.90
2023-05-06T20:17:39.421Z,99.90
2023-05-06T20:20:09.988Z,99.90
2023-05-06T20:22:37.931Z,99.90
2023-05-06T20:25:13.125Z,99.90
2023-05-06T20:27:40.511Z,99.90
2023-05-06T20:30:09.552Z,99.90
2023-05-06T20:32:37.703Z,99.90
2023-05-06T20:35:05.270Z,99.90
2023-05-06T20:37:33.656Z,99.90
2023-05-06T20:40:00.836Z,99.90
2023-05-06T20:42:27.894Z,99.90
2023-05-06T20:44:54.656Z,99.90
2023-05-06T20:47:21.535Z,99.90
2023-05-06T20:49:48.355Z,99.90
2023-05-06T20:52:15.076Z,99.90
2023-05-06T20:54:43.250Z,99.90
2023-05-06T20:57:11.461Z,99.90
2023-05-06T20:59:38.268Z,99.90
2023-05-06T21:02:05.578Z,99.90
2023-05-06T21:04:32.825Z,99.90
2023-05-06T21:06:59.851Z,99.90
2023-05-06T21:09:28.015Z,99.90
2023-05-06T21:11:55.691Z,99.90
2023-05-06T21:14:24.789Z,99.90
2023-05-06T21:16:52.269Z,99.90
2023-05-06T21:19:19.908Z,99.90
2023-05-06T21:21:46.908Z,99.90
2023-05-06T21:24:13.697Z,99.90
2023-05-06T21:26:40.522Z,99.90
2023-05-06T21:29:07.490Z,99.90
2023-05-06T21:31:34.400Z,99.90
2023-05-06T21:34:01.329Z,99.90
2023-05-06T21:36:28.222Z,99.90
2023-05-06T21:39:09.855Z,99.90
2023-05-06T21:41:37.048Z,99.90
2023-05-06T21:44:05.868Z,99.90
2023-05-06T21:46:33.716Z,99.90
2023-05-06T21:49:01.056Z,99.90
2023-05-06T21:51:28.672Z,99.90
2023-05-06T21:53:55.546Z,99.90
2023-05-06T21:56:22.699Z,99.90
2023-05-06T21:58:49.662Z,99.90
2023-05-06T22:01:16.838Z,99.90
2023-05-06T22:03:45.986Z,99.90
2023-05-06T22:06:13.258Z,99.90
2023-05-06T22:08:41.173Z,99.90
2023-05-06T22:11:08.249Z,99.90
2023-05-06T22:13:35.190Z,99.90
2023-05-06T22:16:02.031Z,99.90
2023-05-06T22:18:30.029Z,99.90
2023-05-06T22:20:57.854Z,99.90
2023-05-06T22:23:25.423Z,99.90
2023-05-06T22:25:52.379Z,99.90
2023-05-06T22:28:19.826Z,99.90
2023-05-06T22:30:46.668Z,99.90
2023-05-06T22:33:13.611Z,99.90
2023-05-06T22:35:40.611Z,99.90
2023-05-06T22:38:08.735Z,99.90
2023-05-06T22:40:35.510Z,99.90
2023-05-06T22:43:02.354Z,99.90
2023-05-06T22:45:29.270Z,99.90
2023-05-06T22:47:56.279Z,99.90
2023-05-06T22:50:23.149Z,99.90
2023-05-06T22:52:49.869Z,99.90
2023-05-06T22:55:16.608Z,99.90
2023-05-06T22:57:43.470Z,99.90
2023-05-06T23:00:12.557Z,99.90
2023-05-06T23:02:39.849Z,99.90
2023-05-06T23:05:07.230Z,99.90
2023-05-06T23:07:34.149Z,99.90
2023-05-06T23:10:01.283Z,99.90
2023-05-06T23:12:32.793Z,99.90
2023-05-06T23:15:00.401Z,99.90
2023-05-06T23:17:27.240Z,99.90
2023-05-06T23:19:54.088Z,99.90
2023-05-06T23:22:20.992Z,99.90
2023-05-06T23:24:47.784Z,99.90
2023-05-06T23:27:14.670Z,99.90
2023-05-06T23:29:41.422Z,99.90
2023-05-06T23:32:08.275Z,99.90
2023-05-06T23:34:34.995Z,99.90
2023-05-06T23:37:01.733Z,99.90
2023-05-06T23:39:29.626Z,99.90
2023-05-06T23:41:56.345Z,99.90
2023-05-06T23:44:23.354Z,99.90
2023-05-06T23:46:50.246Z,99.90
2023-05-06T23:49:17.157Z,99.90
2023-05-06T23:51:43.875Z,99.90
2023-05-06T23:54:10.726Z,99.90
2023-05-06T23:56:37.439Z,99.90
2023-05-06T23:59:04.190Z,99.90
